This is the latest recevied weather packets stored in our database for station/object W6SNO-1. If no packets are shown the sender has not sent any weather packets the latest 1 day(s).
| Time | Temp. | Humidity | Pressure | Rain* | Wind** | Luminosity | Snow |
|---|---|---|---|---|---|---|---|
| 1778014634 | 15° C | 73% | 1016.3 hPa | 0 mm | 0.45 m/s, 332° | 161 W/m² | - |
| 1778014332 | 15° C | 73% | 1016.5 hPa | 0 mm | 0.45 m/s, 349° | 170 W/m² | - |
| 1778014028 | 15.56° C | 72% | 1016.3 hPa | 0 mm | 0 m/s | 178 W/m² | - |
| 1778013727 | 15.56° C | 71% | 1016.2 hPa | 0 mm | 0 m/s | 167 W/m² | - |
| 1778013424 | 15° C | 71% | 1016.3 hPa | 0 mm | 0.45 m/s, 272° | 189 W/m² | - |
| 1778013120 | 15° C | 71% | 1016.5 hPa | 0 mm | 0 m/s | 175 W/m² | - |
| 1778012816 | 15° C | 72% | 1016.2 hPa | 0 mm | 0 m/s | 199 W/m² | - |
| 1778012512 | 15° C | 74% | 1016.2 hPa | 0 mm | 0.45 m/s, 349° | 161 W/m² | - |
| 1778012208 | 15° C | 73% | 1016.4 hPa | 0 mm | 0.45 m/s, 343° | 177 W/m² | - |
| 1778011907 | 15° C | 72% | 1016.5 hPa | 0 mm | 0 m/s | 192 W/m² | - |
| 1778011605 | 15° C | 71% | 1016.5 hPa | 0 mm | 0 m/s | 178 W/m² | - |
| 1778011301 | 15° C | 71% | 1016.4 hPa | 0 mm | 0.45 m/s, 330° | 158 W/m² | - |
| 1778010997 | 15° C | 71% | 1016.4 hPa | 0 mm | 0.45 m/s, 318° | 144 W/m² | - |
| 1778010695 | 15° C | 71% | 1016.6 hPa | 0 mm | 0 m/s | 133 W/m² | - |
| 1778010392 | 15° C | 71% | 1016.5 hPa | 0 mm | 0 m/s | 130 W/m² | - |
| 1778010087 | 15° C | 71% | 1016.6 hPa | 0 mm | 0 m/s | 165 W/m² | - |
| 1778009785 | 15° C | 71% | 1016.7 hPa | 0 mm | 0.45 m/s, 346° | 145 W/m² | - |
| 1778009481 | 15° C | 71% | 1016.7 hPa | 0 mm | 0 m/s | 156 W/m² | - |
| 1778009180 | 15° C | 71% | 1016.8 hPa | 0 mm | 0.45 m/s, 10° | 187 W/m² | - |
| 1778008877 | 15° C | 70% | 1016.6 hPa | 0 mm | 0.45 m/s, 357° | 225 W/m² | - |
| 1778008576 | 15° C | 69% | 1016.4 hPa | 0 mm | 0.45 m/s, 332° | 299 W/m² | - |
| 1778008273 | 15° C | 70% | 1016.4 hPa | 0 mm | 0 m/s | 296 W/m² | - |
| 1778007968 | 14.44° C | 70% | 1016.5 hPa | 0 mm | 0 m/s | 283 W/m² | - |
| 1778007664 | 14.44° C | 71% | 1016.5 hPa | 0 mm | 0.45 m/s, 25° | 256 W/m² | - |
| 1778007361 | 14.44° C | 71% | 1016.6 hPa | 0 mm | 0.45 m/s, 333° | 207 W/m² | - |
* Rain latest hour (hover to see other rain measurements)
** Current wind speed in m/s (hover to see current wind gust speed)